createdAt,value
2017-08-27T00:00:31.880Z,22.30
2017-08-27T00:01:31.864Z,21.70
2017-08-27T00:02:31.839Z,22.00
2017-08-27T00:03:31.818Z,22.10
2017-08-27T00:04:31.800Z,21.60
2017-08-27T00:05:31.779Z,21.70
2017-08-27T00:06:31.757Z,21.30
2017-08-27T00:07:31.736Z,22.30
2017-08-27T00:08:31.717Z,21.70
2017-08-27T00:09:31.693Z,20.80
2017-08-27T00:10:31.671Z,21.20
2017-08-27T00:11:31.650Z,21.90
2017-08-27T00:12:31.630Z,21.10
2017-08-27T00:13:31.608Z,21.80
2017-08-27T00:14:31.591Z,21.90
2017-08-27T00:15:31.568Z,21.50
2017-08-27T00:16:31.542Z,21.20
2017-08-27T00:17:31.534Z,21.00
2017-08-27T00:18:31.507Z,21.00
2017-08-27T00:19:31.486Z,20.10
2017-08-27T00:20:31.464Z,22.00
2017-08-27T00:21:31.442Z,20.40
2017-08-27T00:22:31.421Z,20.40
2017-08-27T00:23:31.397Z,21.20
2017-08-27T00:24:31.375Z,21.50
2017-08-27T00:25:31.359Z,20.30
2017-08-27T00:26:31.336Z,21.60
2017-08-27T00:27:31.318Z,20.60
2017-08-27T00:28:31.294Z,20.40
2017-08-27T00:29:31.272Z,20.10
2017-08-27T00:30:31.255Z,20.30
2017-08-27T00:31:31.229Z,20.10
2017-08-27T00:32:31.208Z,20.60
2017-08-27T00:33:31.187Z,21.10
2017-08-27T00:34:31.170Z,20.30
2017-08-27T00:35:31.147Z,20.40
2017-08-27T00:36:31.124Z,20.20
2017-08-27T00:37:31.105Z,19.60
2017-08-27T00:38:31.084Z,19.60
2017-08-27T00:39:31.063Z,21.00
2017-08-27T00:40:31.041Z,19.70
2017-08-27T00:41:31.021Z,19.10
2017-08-27T00:42:30.998Z,19.40
2017-08-27T00:43:30.977Z,20.30
2017-08-27T00:44:30.959Z,19.80
2017-08-27T00:45:30.939Z,19.60
2017-08-27T00:46:30.916Z,20.20
2017-08-27T00:47:30.893Z,18.90
2017-08-27T00:48:30.880Z,19.10
2017-08-27T00:49:30.851Z,19.30
2017-08-27T00:50:30.838Z,20.40
2017-08-27T00:51:30.817Z,18.70
2017-08-27T00:52:30.793Z,19.70
2017-08-27T00:53:30.770Z,19.70
2017-08-27T00:54:30.747Z,20.30
2017-08-27T00:55:30.727Z,19.70
2017-08-27T00:56:30.706Z,19.50
2017-08-27T00:57:30.687Z,19.00
2017-08-27T00:58:30.662Z,20.10
2017-08-27T00:59:30.646Z,18.50
2017-08-27T01:00:30.620Z,18.20
2017-08-27T01:01:30.602Z,19.60
2017-08-27T01:02:30.581Z,19.20
2017-08-27T01:03:30.559Z,18.00
2017-08-27T01:04:30.538Z,19.30
2017-08-27T01:05:30.518Z,18.50
2017-08-27T01:06:30.492Z,19.40
2017-08-27T01:07:30.476Z,18.50
2017-08-27T01:08:30.452Z,19.00
2017-08-27T01:09:30.431Z,19.00
2017-08-27T01:10:30.411Z,18.40
2017-08-27T01:11:30.390Z,18.40
2017-08-27T01:12:30.370Z,18.70
2017-08-27T01:13:30.346Z,19.00
2017-08-27T01:14:30.325Z,19.00
2017-08-27T01:15:30.307Z,18.60
2017-08-27T01:16:30.287Z,18.40
2017-08-27T01:17:30.263Z,18.00
2017-08-27T01:18:30.243Z,18.60
2017-08-27T01:19:30.222Z,17.40
2017-08-27T01:20:30.199Z,18.60
2017-08-27T01:21:30.181Z,18.80
2017-08-27T01:22:30.160Z,18.70
2017-08-27T01:23:30.136Z,18.20
2017-08-27T01:24:30.142Z,18.80
2017-08-27T01:25:30.094Z,18.20
2017-08-27T01:26:30.072Z,19.00
2017-08-27T01:27:30.053Z,18.70
2017-08-27T01:28:30.033Z,18.60
2017-08-27T01:29:30.007Z,18.10
2017-08-27T01:30:29.989Z,18.50
2017-08-27T01:31:29.968Z,18.20
2017-08-27T01:32:29.943Z,17.40
2017-08-27T01:33:29.925Z,18.80
2017-08-27T01:34:29.906Z,18.00
2017-08-27T01:35:29.881Z,17.50
2017-08-27T01:36:29.862Z,17.90
2017-08-27T01:37:29.843Z,17.90
2017-08-27T01:38:29.818Z,18.10
2017-08-27T01:39:29.807Z,18.30
2017-08-27T01:40:29.779Z,17.70
2017-08-27T01:41:29.756Z,18.10
2017-08-27T01:42:29.744Z,19.50
2017-08-27T01:43:29.713Z,17.70
2017-08-27T01:44:29.693Z,18.00
2017-08-27T01:45:29.673Z,18.10
2017-08-27T01:46:29.653Z,18.10
2017-08-27T01:47:29.630Z,17.60
2017-08-27T01:48:29.610Z,17.90
2017-08-27T01:49:29.585Z,17.50
2017-08-27T01:50:29.569Z,17.80
2017-08-27T01:51:29.543Z,17.90
2017-08-27T01:52:29.526Z,17.70
2017-08-27T01:53:29.502Z,17.70
2017-08-27T01:54:29.481Z,17.50
2017-08-27T01:55:29.465Z,17.20
2017-08-27T01:56:29.441Z,16.20
2017-08-27T01:57:29.419Z,17.60
2017-08-27T01:58:29.395Z,18.10
2017-08-27T01:59:29.380Z,18.10
2017-08-27T02:00:29.364Z,17.60
2017-08-27T02:01:29.334Z,17.20
2017-08-27T02:02:29.314Z,17.10
2017-08-27T02:03:29.292Z,17.50
2017-08-27T02:04:29.269Z,16.50
2017-08-27T02:05:29.247Z,17.80
2017-08-27T02:06:29.231Z,17.90
2017-08-27T02:07:29.207Z,17.20
2017-08-27T02:08:29.189Z,17.40
2017-08-27T02:09:29.166Z,17.90
2017-08-27T02:10:29.142Z,16.80
2017-08-27T02:11:29.126Z,17.60
2017-08-27T02:12:29.101Z,18.40
2017-08-27T02:13:29.080Z,16.70
2017-08-27T02:14:29.060Z,16.40
2017-08-27T02:15:29.043Z,17.40
2017-08-27T02:16:29.017Z,17.30
2017-08-27T02:17:28.995Z,16.80
2017-08-27T02:18:28.975Z,16.80
2017-08-27T02:19:28.958Z,16.60
2017-08-27T02:20:28.931Z,17.40
2017-08-27T02:21:28.910Z,17.80
2017-08-27T02:22:28.892Z,17.70
2017-08-27T02:23:28.871Z,17.20
2017-08-27T02:24:28.850Z,17.70
2017-08-27T02:25:28.827Z,15.90
2017-08-27T02:26:28.807Z,17.90
2017-08-27T02:27:28.786Z,17.20
2017-08-27T02:28:28.764Z,17.00
2017-08-27T02:29:28.745Z,17.10
2017-08-27T02:30:28.720Z,17.50
2017-08-27T02:31:28.704Z,17.00
2017-08-27T02:32:28.719Z,17.20
2017-08-27T02:33:28.662Z,17.50
2017-08-27T02:34:28.640Z,16.60
2017-08-27T02:35:28.620Z,17.80
2017-08-27T02:36:28.595Z,17.30
2017-08-27T02:37:28.575Z,17.10
2017-08-27T02:38:28.554Z,17.10
2017-08-27T02:39:28.531Z,17.30
2017-08-27T02:40:28.511Z,16.50
2017-08-27T02:41:28.490Z,16.90
2017-08-27T02:42:28.467Z,17.40
2017-08-27T02:43:28.452Z,16.50
2017-08-27T02:44:28.423Z,16.60
2017-08-27T02:45:28.405Z,16.50
2017-08-27T02:46:28.383Z,16.70
2017-08-27T02:47:28.364Z,15.80
2017-08-27T02:48:28.341Z,16.90
2017-08-27T02:49:28.319Z,16.70
2017-08-27T02:50:28.299Z,17.00
2017-08-27T02:51:28.278Z,17.60
2017-08-27T02:52:28.256Z,16.60
2017-08-27T02:53:28.236Z,16.00
2017-08-27T02:54:28.218Z,17.20
2017-08-27T02:55:28.195Z,16.60
2017-08-27T02:56:28.174Z,16.50
2017-08-27T02:57:28.149Z,16.00
2017-08-27T02:58:28.133Z,16.80
2017-08-27T02:59:28.111Z,15.70
2017-08-27T03:00:28.085Z,15.70
2017-08-27T03:01:28.067Z,16.20
2017-08-27T03:02:28.047Z,16.60
2017-08-27T03:03:28.025Z,17.40
2017-08-27T03:04:28.006Z,15.60
2017-08-27T03:05:27.980Z,16.80
2017-08-27T03:06:27.960Z,15.70
2017-08-27T03:07:27.939Z,16.70
2017-08-27T03:08:27.918Z,16.90
2017-08-27T03:09:27.898Z,16.50
2017-08-27T03:10:27.877Z,16.10
2017-08-27T03:11:27.858Z,16.80
2017-08-27T03:12:27.833Z,15.90
2017-08-27T03:13:27.815Z,15.70
2017-08-27T03:14:27.793Z,16.50
2017-08-27T03:15:27.777Z,15.50
2017-08-27T03:16:27.752Z,17.70
2017-08-27T03:17:27.726Z,16.10
2017-08-27T03:18:27.706Z,16.50
2017-08-27T03:19:27.683Z,16.10
2017-08-27T03:20:27.666Z,16.90
2017-08-27T03:21:27.644Z,16.00
2017-08-27T03:22:27.623Z,15.90
2017-08-27T03:23:27.602Z,16.10
2017-08-27T03:24:27.580Z,16.80
2017-08-27T03:25:27.562Z,17.20
2017-08-27T03:26:27.538Z,15.60
2017-08-27T03:27:27.518Z,15.90
2017-08-27T03:28:27.498Z,16.60
2017-08-27T03:29:27.474Z,15.40
2017-08-27T03:30:27.455Z,15.40
2017-08-27T03:31:27.436Z,16.60
2017-08-27T03:32:27.409Z,16.00
2017-08-27T03:33:27.393Z,15.10
2017-08-27T03:34:27.368Z,16.30
2017-08-27T03:35:27.349Z,15.60
2017-08-27T03:36:27.329Z,15.50
2017-08-27T03:37:27.305Z,15.20
2017-08-27T03:38:27.283Z,16.20
2017-08-27T03:39:27.261Z,16.00
2017-08-27T03:40:27.244Z,16.00
2017-08-27T03:41:27.219Z,15.50
2017-08-27T03:42:27.203Z,15.60
2017-08-27T03:43:27.179Z,16.00
2017-08-27T03:44:27.158Z,14.50
2017-08-27T03:45:27.138Z,15.80
2017-08-27T03:46:27.112Z,15.10
2017-08-27T03:47:27.095Z,15.90
2017-08-27T03:48:27.071Z,15.30
2017-08-27T03:49:27.049Z,16.60
2017-08-27T03:50:27.031Z,14.90
2017-08-27T03:51:27.011Z,15.50
2017-08-27T03:52:26.991Z,15.40
2017-08-27T03:53:26.969Z,16.10
2017-08-27T03:54:26.946Z,15.60
2017-08-27T03:55:26.923Z,15.50
2017-08-27T03:56:26.905Z,15.00
2017-08-27T03:57:26.884Z,15.70
2017-08-27T03:58:26.859Z,15.50
2017-08-27T03:59:26.839Z,15.40
2017-08-27T04:00:26.817Z,15.20
2017-08-27T04:01:26.797Z,15.40
2017-08-27T04:02:26.776Z,15.70
2017-08-27T04:03:26.756Z,15.60
2017-08-27T04:04:26.737Z,15.70
2017-08-27T04:05:26.713Z,14.90
2017-08-27T04:06:26.691Z,15.50
2017-08-27T04:07:26.674Z,15.60
2017-08-27T04:08:26.648Z,14.60
2017-08-27T04:09:26.628Z,14.60
2017-08-27T04:10:26.611Z,16.20
2017-08-27T04:11:26.587Z,15.50
2017-08-27T04:12:26.563Z,16.10
2017-08-27T04:13:26.541Z,15.60
2017-08-27T04:14:26.523Z,16.10
2017-08-27T04:15:26.500Z,16.30
2017-08-27T04:16:26.479Z,15.50
2017-08-27T04:17:26.462Z,15.10
2017-08-27T04:18:26.438Z,16.40
2017-08-27T04:19:26.418Z,15.60
2017-08-27T04:20:26.396Z,17.40
2017-08-27T04:21:26.380Z,18.10
2017-08-27T04:22:26.356Z,18.30
2017-08-27T04:23:26.331Z,20.20
2017-08-27T04:24:26.309Z,42.00
2017-08-27T04:25:26.292Z,80.50
2017-08-27T04:26:26.272Z,82.30
2017-08-27T04:27:26.248Z,88.50
2017-08-27T04:28:26.225Z,78.00
2017-08-27T04:29:26.213Z,59.20
2017-08-27T04:30:26.187Z,68.90
2017-08-27T04:31:26.164Z,71.40
2017-08-27T04:32:26.141Z,71.60
2017-08-27T04:33:26.121Z,77.60
2017-08-27T04:34:26.098Z,68.70
2017-08-27T04:35:26.082Z,65.30
2017-08-27T04:36:26.057Z,63.50
2017-08-27T04:37:26.039Z,59.80
2017-08-27T04:38:26.014Z,58.10
2017-08-27T04:39:25.991Z,57.60
2017-08-27T04:40:25.974Z,57.30
2017-08-27T04:41:25.954Z,56.60
2017-08-27T04:42:25.928Z,53.20
2017-08-27T04:43:25.915Z,47.90
2017-08-27T04:44:25.890Z,43.60
2017-08-27T04:45:25.867Z,44.50
2017-08-27T04:46:25.843Z,48.30
2017-08-27T04:47:25.825Z,44.50
2017-08-27T04:48:25.805Z,44.90
2017-08-27T04:49:25.785Z,44.40
2017-08-27T04:50:25.765Z,43.50
2017-08-27T04:51:25.737Z,44.40
2017-08-27T04:52:25.717Z,41.00
2017-08-27T04:53:25.696Z,40.60
2017-08-27T04:54:25.679Z,40.20
2017-08-27T04:55:25.658Z,40.70
2017-08-27T04:56:25.634Z,40.00
2017-08-27T04:57:25.615Z,39.20
2017-08-27T04:58:25.591Z,38.20
2017-08-27T04:59:25.581Z,38.70
2017-08-27T05:00:25.548Z,36.30
2017-08-27T05:01:25.530Z,35.90
2017-08-27T05:02:25.505Z,36.20
2017-08-27T05:03:25.498Z,34.80
2017-08-27T05:04:25.474Z,36.70
2017-08-27T05:05:25.446Z,36.70
2017-08-27T05:06:25.431Z,36.50
2017-08-27T05:07:25.402Z,35.30
2017-08-27T05:08:25.381Z,36.60
2017-08-27T05:09:25.359Z,37.60
2017-08-27T05:10:25.337Z,33.80
2017-08-27T05:11:25.317Z,32.90
2017-08-27T05:12:25.297Z,33.30
2017-08-27T05:13:25.272Z,34.20
2017-08-27T05:14:25.250Z,32.90
2017-08-27T05:15:25.233Z,33.00
2017-08-27T05:16:25.208Z,33.50
2017-08-27T05:17:25.185Z,32.40
2017-08-27T05:18:25.170Z,33.00
2017-08-27T05:19:25.150Z,32.60
2017-08-27T05:20:25.131Z,32.40
2017-08-27T05:21:25.107Z,32.10
2017-08-27T05:22:25.083Z,33.00
2017-08-27T05:23:25.069Z,32.30
2017-08-27T05:24:25.040Z,32.30
2017-08-27T05:25:25.022Z,33.00
2017-08-27T05:26:25.010Z,32.20
2017-08-27T05:27:24.978Z,30.10
2017-08-27T05:28:24.955Z,30.20
2017-08-27T05:29:24.937Z,29.40
2017-08-27T05:30:24.915Z,28.90
2017-08-27T05:31:24.891Z,29.90
2017-08-27T05:32:24.868Z,31.30
2017-08-27T05:33:24.860Z,30.10
2017-08-27T05:34:24.829Z,29.90
2017-08-27T05:35:24.809Z,29.00
2017-08-27T05:36:24.787Z,28.00
2017-08-27T05:37:24.766Z,28.60
2017-08-27T05:38:24.744Z,27.90
2017-08-27T05:39:24.726Z,28.20
2017-08-27T05:40:24.701Z,29.00
2017-08-27T05:41:24.681Z,27.30
2017-08-27T05:42:24.660Z,26.80
2017-08-27T05:43:24.641Z,26.30
2017-08-27T05:44:24.616Z,26.80
2017-08-27T05:45:24.596Z,26.30
2017-08-27T05:46:24.577Z,27.60
2017-08-27T05:47:24.551Z,26.50
2017-08-27T05:48:24.530Z,27.10
2017-08-27T05:49:24.508Z,25.60
2017-08-27T05:50:24.490Z,24.50
2017-08-27T05:51:24.471Z,23.20
2017-08-27T05:52:24.445Z,24.60
2017-08-27T05:53:24.428Z,24.00
2017-08-27T05:54:24.407Z,23.30
2017-08-27T05:55:24.384Z,25.10
2017-08-27T05:56:24.366Z,23.30
2017-08-27T05:57:24.343Z,23.50
2017-08-27T05:58:24.322Z,23.30
2017-08-27T05:59:24.297Z,23.10
2017-08-27T06:00:24.280Z,23.30
2017-08-27T06:01:24.254Z,23.10
2017-08-27T06:02:24.236Z,22.80
2017-08-27T06:03:24.212Z,23.00
2017-08-27T06:04:24.194Z,23.30
2017-08-27T06:05:24.169Z,20.70
2017-08-27T06:06:24.152Z,21.70
2017-08-27T06:07:24.131Z,20.60
2017-08-27T06:08:24.107Z,20.40
2017-08-27T06:09:24.085Z,20.60
2017-08-27T06:10:24.065Z,20.70
2017-08-27T06:11:24.047Z,19.60
2017-08-27T06:12:24.024Z,18.90
2017-08-27T06:13:24.004Z,19.30
2017-08-27T06:14:23.983Z,20.00
2017-08-27T06:15:23.958Z,21.90
2017-08-27T06:16:23.944Z,21.80
2017-08-27T06:17:23.918Z,22.80
2017-08-27T06:18:23.904Z,21.40
2017-08-27T06:19:23.872Z,21.90
2017-08-27T06:20:23.849Z,20.10
2017-08-27T06:21:23.834Z,18.60
2017-08-27T06:22:23.810Z,18.00
2017-08-27T06:23:23.789Z,18.90
2017-08-27T06:24:23.766Z,19.50
2017-08-27T06:25:23.744Z,18.70
2017-08-27T06:26:23.728Z,17.40
2017-08-27T06:27:23.702Z,19.60
2017-08-27T06:28:23.680Z,19.60
2017-08-27T06:29:23.662Z,17.50
2017-08-27T06:30:23.641Z,15.90
2017-08-27T06:31:23.622Z,16.80
2017-08-27T06:32:23.600Z,17.30
2017-08-27T06:33:23.577Z,18.00
2017-08-27T06:34:23.559Z,17.00
2017-08-27T06:35:23.532Z,17.70
2017-08-27T06:36:23.515Z,18.60
2017-08-27T06:37:23.490Z,16.20
2017-08-27T06:38:23.474Z,16.00
2017-08-27T06:39:23.450Z,16.50
2017-08-27T06:40:23.428Z,16.90
2017-08-27T06:41:23.429Z,16.70
2017-08-27T06:42:23.386Z,17.80
2017-08-27T06:43:23.365Z,16.50
2017-08-27T06:44:23.343Z,15.40
2017-08-27T06:45:23.322Z,15.60
2017-08-27T06:46:23.300Z,15.60
2017-08-27T06:47:23.280Z,15.60
2017-08-27T06:48:23.256Z,15.50
2017-08-27T06:49:23.240Z,15.40
2017-08-27T06:50:23.214Z,15.00
2017-08-27T06:51:23.198Z,15.70
2017-08-27T06:52:23.173Z,14.50
2017-08-27T06:53:23.154Z,15.70
2017-08-27T06:54:23.131Z,16.40
2017-08-27T06:55:23.110Z,15.40
2017-08-27T06:56:23.089Z,15.10
2017-08-27T06:57:23.065Z,15.00
2017-08-27T06:58:23.044Z,15.10
2017-08-27T06:59:23.028Z,15.40
2017-08-27T07:00:23.002Z,15.10
2017-08-27T07:01:22.985Z,14.70
2017-08-27T07:02:22.961Z,15.30
2017-08-27T07:03:22.942Z,14.20
2017-08-27T07:04:22.921Z,14.80
2017-08-27T07:05:22.897Z,14.90
2017-08-27T07:06:22.876Z,14.50
2017-08-27T07:07:22.858Z,15.30
2017-08-27T07:08:22.836Z,16.20
2017-08-27T07:09:22.810Z,17.90
2017-08-27T07:10:22.791Z,21.80
2017-08-27T07:11:22.769Z,20.60
2017-08-27T07:12:22.747Z,21.20
2017-08-27T07:13:22.725Z,26.10
2017-08-27T07:14:22.706Z,35.90
2017-08-27T07:15:22.689Z,37.00
2017-08-27T07:16:22.664Z,22.80
2017-08-27T07:17:22.647Z,18.50
2017-08-27T07:18:22.625Z,17.40
2017-08-27T07:19:22.601Z,18.00
2017-08-27T07:20:22.580Z,17.70
2017-08-27T07:21:22.559Z,19.80
2017-08-27T07:22:22.537Z,21.80
2017-08-27T07:23:22.515Z,29.30
2017-08-27T07:24:22.494Z,29.40
2017-08-27T07:25:22.472Z,39.00
2017-08-27T07:26:22.456Z,38.40
2017-08-27T07:27:22.431Z,33.20
2017-08-27T07:28:22.410Z,32.00
2017-08-27T07:29:22.389Z,30.70
2017-08-27T07:30:22.367Z,29.70
2017-08-27T07:31:22.355Z,43.90
2017-08-27T07:32:22.326Z,57.40
2017-08-27T07:33:22.304Z,60.20
2017-08-27T07:34:22.284Z,48.70
2017-08-27T07:35:22.266Z,46.70
2017-08-27T07:36:22.244Z,43.20
2017-08-27T07:37:22.225Z,39.10
2017-08-27T07:38:22.200Z,34.90
2017-08-27T07:39:22.183Z,36.60
2017-08-27T07:40:22.157Z,36.30
2017-08-27T07:41:22.136Z,36.10
2017-08-27T07:42:22.119Z,39.60
2017-08-27T07:43:22.096Z,36.60
2017-08-27T07:44:22.074Z,37.30
2017-08-27T07:45:22.051Z,36.80
2017-08-27T07:46:22.033Z,37.00
2017-08-27T07:47:22.011Z,33.80
2017-08-27T07:48:21.990Z,32.60
2017-08-27T07:49:21.972Z,32.90
2017-08-27T07:50:21.947Z,34.00
2017-08-27T07:51:21.927Z,34.40
2017-08-27T07:52:21.908Z,35.70
2017-08-27T07:53:21.882Z,35.20
2017-08-27T07:54:21.865Z,33.10
2017-08-27T07:55:21.844Z,33.10
2017-08-27T07:56:21.820Z,35.60
2017-08-27T07:57:21.803Z,32.10
2017-08-27T07:58:21.781Z,31.10
2017-08-27T07:59:21.762Z,34.20
2017-08-27T08:00:21.740Z,30.20
2017-08-27T08:01:21.715Z,30.90
2017-08-27T08:02:21.694Z,26.60
2017-08-27T08:03:21.673Z,29.10
2017-08-27T08:04:21.651Z,28.70
2017-08-27T08:05:21.632Z,29.40
2017-08-27T08:06:21.609Z,28.40
2017-08-27T08:07:21.593Z,27.50
2017-08-27T08:08:21.569Z,25.40
2017-08-27T08:09:21.550Z,26.50
2017-08-27T08:10:21.525Z,29.00
2017-08-27T08:11:21.512Z,26.50
2017-08-27T08:12:21.484Z,24.80
2017-08-27T08:13:21.465Z,25.60
2017-08-27T08:14:21.441Z,27.20
2017-08-27T08:15:21.423Z,25.30
2017-08-27T08:16:21.404Z,26.50
2017-08-27T08:17:21.381Z,25.10
2017-08-27T08:18:21.361Z,26.10
2017-08-27T08:19:21.341Z,25.40
2017-08-27T08:20:21.316Z,24.20
2017-08-27T08:21:21.295Z,22.00
2017-08-27T08:22:21.276Z,19.70
2017-08-27T08:23:21.252Z,21.30
2017-08-27T08:24:21.231Z,20.70
2017-08-27T08:25:21.213Z,21.30
2017-08-27T08:26:21.191Z,19.20
2017-08-27T08:27:21.169Z,20.50
2017-08-27T08:28:21.148Z,21.60
2017-08-27T08:29:21.130Z,21.00
2017-08-27T08:30:21.109Z,22.60
2017-08-27T08:31:21.090Z,22.50
2017-08-27T08:32:21.064Z,25.80
2017-08-27T08:33:21.045Z,23.10
2017-08-27T08:34:21.036Z,22.40
2017-08-27T08:35:21.004Z,21.50
2017-08-27T08:36:20.981Z,21.90
2017-08-27T08:37:20.956Z,16.90
2017-08-27T08:38:20.939Z,16.40
2017-08-27T08:39:20.926Z,17.00
2017-08-27T08:40:20.896Z,15.20
2017-08-27T08:41:20.873Z,18.70
2017-08-27T08:42:20.856Z,15.40
2017-08-27T08:43:20.833Z,15.70
2017-08-27T08:44:20.809Z,15.40
2017-08-27T08:45:20.791Z,14.80
2017-08-27T08:46:20.769Z,14.40
2017-08-27T08:47:20.750Z,13.40
2017-08-27T08:48:20.730Z,12.20
2017-08-27T08:49:20.704Z,15.40
2017-08-27T08:50:20.689Z,16.60
2017-08-27T08:51:20.668Z,16.00
2017-08-27T08:52:20.641Z,13.90
2017-08-27T08:53:20.620Z,14.00
2017-08-27T08:54:20.602Z,13.80
2017-08-27T08:55:20.576Z,13.70
2017-08-27T08:56:20.556Z,15.00
2017-08-27T08:57:20.533Z,12.30
2017-08-27T08:58:20.517Z,11.50
2017-08-27T08:59:20.493Z,13.50
2017-08-27T09:00:20.469Z,15.80
2017-08-27T09:01:20.451Z,14.50
2017-08-27T09:02:20.429Z,14.70
2017-08-27T09:03:20.409Z,20.80
2017-08-27T09:04:20.386Z,24.50
2017-08-27T09:05:20.366Z,16.90
2017-08-27T09:06:20.345Z,15.60
2017-08-27T09:07:20.323Z,14.60
2017-08-27T09:08:20.300Z,13.50
2017-08-27T09:09:20.280Z,15.20
2017-08-27T09:10:20.263Z,14.60
2017-08-27T09:11:20.238Z,14.60
2017-08-27T09:12:20.214Z,12.30
2017-08-27T09:13:20.198Z,12.80
2017-08-27T09:14:20.176Z,11.80
2017-08-27T09:15:20.154Z,11.70
2017-08-27T09:16:20.133Z,11.20
2017-08-27T09:17:20.111Z,11.90
2017-08-27T09:18:20.090Z,10.20
2017-08-27T09:19:20.070Z,10.30
2017-08-27T09:20:20.048Z,10.60
2017-08-27T09:21:20.032Z,9.40
2017-08-27T09:22:20.004Z,9.80
2017-08-27T09:23:19.987Z,9.30
2017-08-27T09:24:19.962Z,8.60
2017-08-27T09:25:19.943Z,8.60
2017-08-27T09:26:19.922Z,8.20
2017-08-27T09:27:19.902Z,8.80
2017-08-27T09:28:19.879Z,7.70
2017-08-27T09:29:19.857Z,9.00
2017-08-27T09:30:19.837Z,7.70
2017-08-27T09:31:19.817Z,7.90
2017-08-27T09:32:19.791Z,7.10
2017-08-27T09:33:19.772Z,7.30
2017-08-27T09:34:19.750Z,6.60
2017-08-27T09:35:19.730Z,7.10
2017-08-27T09:36:19.708Z,6.30
2017-08-27T09:37:19.685Z,6.50
2017-08-27T09:38:19.665Z,6.90
2017-08-27T09:39:19.647Z,6.80
2017-08-27T09:40:19.620Z,6.10
2017-08-27T09:41:19.604Z,6.20
2017-08-27T09:42:19.583Z,6.70
2017-08-27T09:43:19.564Z,5.90
2017-08-27T09:44:19.536Z,6.40
2017-08-27T09:45:19.519Z,6.60
2017-08-27T09:46:19.496Z,6.50
2017-08-27T09:47:19.474Z,6.10
2017-08-27T09:48:19.452Z,6.10
2017-08-27T09:49:19.429Z,6.20
2017-08-27T09:50:19.409Z,5.70
2017-08-27T09:51:19.390Z,5.40
2017-08-27T09:52:19.366Z,6.00
2017-08-27T09:53:19.346Z,5.70
2017-08-27T09:54:19.328Z,6.80
2017-08-27T09:55:19.302Z,6.00
2017-08-27T09:56:19.282Z,6.50
2017-08-27T09:57:19.261Z,6.60
2017-08-27T09:58:19.239Z,6.30
2017-08-27T09:59:19.217Z,6.10
2017-08-27T10:00:19.196Z,6.40
2017-08-27T10:01:19.175Z,6.80
2017-08-27T10:02:19.155Z,6.20
2017-08-27T10:03:19.139Z,6.00
2017-08-27T10:04:19.115Z,6.20
2017-08-27T10:05:19.100Z,6.30
2017-08-27T10:06:19.075Z,6.30
2017-08-27T10:07:19.050Z,6.00
2017-08-27T10:08:19.029Z,6.00
2017-08-27T10:09:19.010Z,5.80
2017-08-27T10:10:18.990Z,5.90
2017-08-27T10:11:18.965Z,5.30
2017-08-27T10:12:18.948Z,6.20
2017-08-27T10:13:18.922Z,5.90
2017-08-27T10:14:18.901Z,6.00
2017-08-27T10:15:18.881Z,5.70
2017-08-27T10:16:18.863Z,6.50
2017-08-27T10:17:18.843Z,6.40
2017-08-27T10:18:18.819Z,6.00
2017-08-27T10:19:18.796Z,5.70
2017-08-27T10:20:18.776Z,6.20
2017-08-27T10:21:18.761Z,6.00
2017-08-27T10:22:18.738Z,6.20
2017-08-27T10:23:18.716Z,5.90
2017-08-27T10:24:18.695Z,6.00
2017-08-27T10:25:18.676Z,6.70
2017-08-27T10:26:18.651Z,6.70
2017-08-27T10:27:18.633Z,7.00
2017-08-27T10:28:18.612Z,7.30
2017-08-27T10:29:18.593Z,7.30
2017-08-27T10:30:18.568Z,7.70
2017-08-27T10:31:18.548Z,7.10
2017-08-27T10:32:18.527Z,6.90
2017-08-27T10:33:18.510Z,6.80
2017-08-27T10:34:18.486Z,7.50
2017-08-27T10:35:18.465Z,6.70
2017-08-27T10:36:18.443Z,6.50
2017-08-27T10:37:18.424Z,7.00
2017-08-27T10:38:18.403Z,7.10
2017-08-27T10:39:18.385Z,6.50
2017-08-27T10:40:18.362Z,6.70
2017-08-27T10:41:18.339Z,6.40
2017-08-27T10:42:18.324Z,6.30
2017-08-27T10:43:18.314Z,6.70
2017-08-27T10:44:18.282Z,6.70
2017-08-27T10:45:18.256Z,6.90
2017-08-27T10:46:18.240Z,6.60
2017-08-27T10:47:18.219Z,6.70
2017-08-27T10:48:18.198Z,6.10
2017-08-27T10:49:18.176Z,5.80
2017-08-27T10:50:18.154Z,6.80
2017-08-27T10:51:18.134Z,6.90
2017-08-27T10:52:18.111Z,6.50
2017-08-27T10:53:18.095Z,6.30
2017-08-27T10:54:18.071Z,6.70
2017-08-27T10:55:18.049Z,6.50
2017-08-27T10:56:18.030Z,6.30
2017-08-27T10:57:18.012Z,6.20
2017-08-27T10:58:17.989Z,6.00
2017-08-27T10:59:17.968Z,5.80
2017-08-27T11:00:17.947Z,6.00
2017-08-27T11:01:17.927Z,6.10
2017-08-27T11:02:17.904Z,6.10
2017-08-27T11:03:17.888Z,6.90
2017-08-27T11:04:17.866Z,6.20
2017-08-27T11:05:17.844Z,6.50
2017-08-27T11:06:17.822Z,6.00
2017-08-27T11:07:17.803Z,6.40
2017-08-27T11:08:17.784Z,6.30
2017-08-27T11:09:17.759Z,5.90
2017-08-27T11:10:17.741Z,6.00
2017-08-27T11:11:17.721Z,6.20
2017-08-27T11:12:17.701Z,6.00
2017-08-27T11:13:17.679Z,6.30
2017-08-27T11:14:17.655Z,6.10
2017-08-27T11:15:17.638Z,5.70
2017-08-27T11:16:17.619Z,6.10
2017-08-27T11:17:17.593Z,6.10
2017-08-27T11:18:17.577Z,6.00
2017-08-27T11:19:17.554Z,6.40
2017-08-27T11:20:17.532Z,6.10
2017-08-27T11:21:17.514Z,6.30
2017-08-27T11:22:17.490Z,6.30
2017-08-27T11:23:17.468Z,6.00
2017-08-27T11:24:17.447Z,6.00
2017-08-27T11:25:17.429Z,5.90
2017-08-27T11:26:17.409Z,6.30
2017-08-27T11:27:17.385Z,5.90
2017-08-27T11:28:17.369Z,5.90
2017-08-27T11:29:17.346Z,5.70
2017-08-27T11:30:17.326Z,6.10
2017-08-27T11:31:17.305Z,5.90
2017-08-27T11:32:17.283Z,6.60
2017-08-27T11:33:17.261Z,6.30
2017-08-27T11:34:17.243Z,6.30
2017-08-27T11:35:17.225Z,6.40
2017-08-27T11:36:17.253Z,6.20
2017-08-27T11:37:17.181Z,6.50
2017-08-27T11:38:17.160Z,6.00
2017-08-27T11:39:17.141Z,6.60
2017-08-27T11:40:17.119Z,6.10
2017-08-27T11:41:17.100Z,6.30
2017-08-27T11:42:17.076Z,6.80
2017-08-27T11:43:17.059Z,6.40
2017-08-27T11:44:17.033Z,6.30
2017-08-27T11:45:17.018Z,6.00
2017-08-27T11:46:16.994Z,6.20
2017-08-27T11:47:16.975Z,6.20
2017-08-27T11:48:16.955Z,6.50
2017-08-27T11:49:16.932Z,5.80
2017-08-27T11:50:16.914Z,5.90
2017-08-27T11:51:16.891Z,6.20
2017-08-27T11:52:16.869Z,6.30
2017-08-27T11:53:16.852Z,6.80
2017-08-27T11:54:16.829Z,6.40
2017-08-27T11:55:16.809Z,6.40
2017-08-27T11:56:16.789Z,6.20
2017-08-27T11:57:16.769Z,6.50
2017-08-27T11:58:16.746Z,5.90
2017-08-27T11:59:16.723Z,6.30
2017-08-27T12:00:16.706Z,6.10
2017-08-27T12:01:16.685Z,5.80
2017-08-27T12:02:16.661Z,6.10
2017-08-27T12:03:16.640Z,6.40
2017-08-27T12:04:16.621Z,6.10
2017-08-27T12:05:16.603Z,6.00
2017-08-27T12:06:16.578Z,6.00
2017-08-27T12:07:16.559Z,6.40
2017-08-27T12:08:16.537Z,6.40
2017-08-27T12:09:16.521Z,6.30
2017-08-27T12:10:16.496Z,6.60
2017-08-27T12:11:16.477Z,6.20
2017-08-27T12:12:16.457Z,6.00
2017-08-27T12:13:16.433Z,6.10
2017-08-27T12:14:16.414Z,6.00
2017-08-27T12:15:16.393Z,5.80
2017-08-27T12:16:16.422Z,6.20
2017-08-27T12:17:16.349Z,6.10
2017-08-27T12:18:16.328Z,6.10
2017-08-27T12:19:16.310Z,6.30
2017-08-27T12:20:16.288Z,6.20
2017-08-27T12:21:16.268Z,6.00
2017-08-27T12:22:16.245Z,6.20
2017-08-27T12:23:16.226Z,5.90
2017-08-27T12:24:16.206Z,5.90
2017-08-27T12:25:16.182Z,6.50
2017-08-27T12:26:16.164Z,5.40
2017-08-27T12:27:16.143Z,5.10
2017-08-27T12:28:16.121Z,5.20
2017-08-27T12:29:16.103Z,5.40
2017-08-27T12:30:16.080Z,4.70
2017-08-27T12:31:16.059Z,4.80
2017-08-27T12:32:16.033Z,4.40
2017-08-27T12:33:16.018Z,4.60
2017-08-27T12:34:15.995Z,4.10
2017-08-27T12:35:15.975Z,11.90
2017-08-27T12:36:15.949Z,31.00
2017-08-27T12:37:15.928Z,31.70
2017-08-27T12:38:15.907Z,14.90
2017-08-27T12:39:15.891Z,16.10
2017-08-27T12:40:15.869Z,15.00
2017-08-27T12:41:15.849Z,13.30
2017-08-27T12:42:15.823Z,10.70
2017-08-27T12:43:15.807Z,10.20
2017-08-27T12:44:15.781Z,9.70
2017-08-27T12:45:15.761Z,9.80
2017-08-27T12:46:15.740Z,9.00
2017-08-27T12:47:15.723Z,8.70
2017-08-27T12:48:15.698Z,8.80
2017-08-27T12:49:15.680Z,8.60
2017-08-27T12:50:15.663Z,7.60
2017-08-27T12:51:15.642Z,8.10
2017-08-27T12:52:15.615Z,7.90
2017-08-27T12:53:15.596Z,7.70
2017-08-27T12:54:15.576Z,7.30
2017-08-27T12:55:15.558Z,7.80
2017-08-27T12:56:15.531Z,7.30
2017-08-27T12:57:15.511Z,6.90
2017-08-27T12:58:15.491Z,7.40
2017-08-27T12:59:15.472Z,7.60